Indianapolis, Indiana
Traffic Map
Current Weather Conditions
Indianapolis, Indiana
Overcast
Overcast

Feels Like: 5°
Wind Chill: Ceiling: 1800
Heat Index: Visibility: 10mi
Dew Point: Wind: 9mph
Humidity: 86% Direction: 140° (SE)
Pressure: 29.65in Gusts: 0mph
Raw Report DataKIND 230454Z 14008KT 10SM OVC018 08/06 A2965 RMK AO2 RAE25DZB25E51 SLP043 P0000 T00780056 400781028
Traffic Incident Summary
Active as of:
Severity:
Category:
InformationThere was an issue retrieving the traffic information for this location. Please try a different location or try again shortly.
Advertisements
Track Severe Weather on mobile